ADDS METAR Data INFO
IDs: Format: Raw Decoded Include TAF

Data at: 1907 UTC 17 Aug 2018

Region: TOP
Region: TOP
KATL 171859Z 00000KT 7SM R09R/3000VP6000FT -RA SCT033CB BKN043 BKN055 28/23 A3014 RMK AO2 RAB53 CB OHD-SE MOV NE P0006 T02780228

KBOS 171854Z 07009KT 6SM HZ FEW011 FEW034 BKN200 OVC310 24/22 A3001 RMK AO2 SLP162 VIS NE-SE 3 T02440217

KBWI 171854Z VRB04KT 10SM SCT044 SCT110 SCT160 SCT250 33/23 A2997 RMK AO2 SLP149 T03330233

KCLE 171851Z 19008KT 10SM -RA FEW030 BKN110 OVC200 24/21 A2996 RMK AO2 LTG DSNT SE RAB30 SLP140 P0002 T02390211

KCLT 171852Z 22009G15KT 10SM BKN047 BKN250 32/22 A3012 RMK AO2 SLP190 T03220222

KCVG 171852Z 23006KT 10SM FEW018 BKN110 OVC130 25/23 A3002 RMK AO2 SLP157 T02500228

KDCA 171852Z 17012KT 10SM FEW045 FEW140 BKN250 34/23 A2999 RMK AO2 SLP155 T03390228

KDEN 171853Z 10005KT 10SM FEW090 SCT150 BKN220 28/13 A3024 RMK AO2 SLP157 TCU DSNT S T02830128 $

KDFW 171853Z 19005G15KT 10SM FEW090 SCT180 SCT300 34/21 A3002 RMK AO2 SLP153 T03440211

KDTW 171905Z 24010KT 4SM R03R/2000VP6000FT -RA SCT020 BKN040 OVC080 24/20 A2993 RMK AO2 LTG DSNT S T02390200 PNO $

KEWR 171851Z 17009KT 10SM SCT045 SCT075 SCT140 BKN250 32/22 A2998 RMK AO2 SLP150 T03170217

KFLL 171853Z 08012G19KT 10SM FEW030 FEW250 32/26 A3014 RMK AO2 SLP207 CB DSNT SE MOV W T03170261

KIAD 171852Z 20007KT 10SM FEW050 FEW150 BKN250 33/22 A2999 RMK AO2 SLP152 T03280222

KIAH 171853Z 19005KT 10SM SCT040 33/23 A3005 RMK AO2 SLP175 T03330233

KJFK 171851Z 17015KT 10SM FEW045 FEW110 SCT220 BKN260 29/25 A3001 RMK AO2 SLP163 T02940250

KLAS 171856Z 13004KT 10SM SCT110 36/14 A3005 RMK AO2 SLP146 TCU DSNT N AND NW ACC DSNT ALQDS T03560139

KLAX 171853Z 26010KT 8SM FEW018 SCT045 27/20 A3005 RMK AO2 SLP174 T02670200

KLGA 171851Z 18014G19KT 10SM FEW045 FEW100 SCT190 BKN250 31/22 A2999 RMK AO2 SLP154 T03110217

KMCO 171853Z 18003KT 10SM SCT060 BKN250 33/21 A3016 RMK AO2 SLP210 CB DSNT NW T03280211

KMDW 171853Z 06004KT 8SM FEW028 SCT036 BKN100 BKN250 27/20 A2995 RMK AO2 SLP131 T02720200

KMEM 171854Z 22009KT 10SM FEW025 SCT110 BKN250 30/23 A3004 RMK AO2 SLP167 T03000228

KMIA 171853Z 10011KT 10SM SCT030 BKN300 33/23 A3014 RMK AO2 SLP207 CB DSNT E T03280233

KMSP 171853Z 02008KT 10SM OVC300 28/16 A3005 RMK AO2 SLP171 T02830156

KORD 171851Z 08008KT 10SM SCT024 BKN030CB BKN055 26/19 A2995 RMK AO2 SLP139 CB SE MOV SE T02560189

KPDX 171853Z VRB05KT 10SM FEW027 20/09 A3026 RMK AO2 SLP246 T02000094

KPHL 171854Z 19011KT 10SM FEW044 SCT120 SCT160 BKN260 33/23 A2999 RMK AO2 SLP153 T03280228

KPHX 171851Z 19004KT 10SM FEW060 FEW150 BKN250 36/20 A3000 RMK AO2 SLP137 T03610200

KPIT 171851Z 21011KT 10SM FEW008 BKN014 OVC030 24/22 A3002 RMK AO2 LTG DSNT W RAE45 SLP163 P0000 T02390217

KSAN 171851Z 28007KT 10SM FEW019 FEW060 SCT250 27/19 A3007 RMK AO2 SLP180 T02670194

KSEA 171853Z 26007KT 10SM BKN019 BKN040 17/11 A3027 RMK AO2 SLP254 T01670106

KSFO 171856Z 03007KT 9SM FEW006 18/13 A3007 RMK AO2 SLP181 T01830133 $

KSLC 171854Z 35005KT 10SM FEW100 SCT160 SCT230 32/09 A3017 RMK AO2 SLP154 CB DSNT NE AND SW TCU DSNT SE T03170089

KSTL 171851Z 32009KT 10SM SCT033 BKN075 BKN250 29/22 A2998 RMK AO2 SLP138 TCU DSNT NW-N T02940217

KTPA 171853Z 23007KT 10SM SCT048TCU SCT250 32/23 A3015 RMK AO2 SLP209 TCU N-SE T03220233